Time;durP1;ratioP1;P1;durP2;ratioP2;P2;SDS_P1;SDS_P2;PMS_P1;PMS_P2;Temp;Humidity;BMP_temperature;BMP_pressure;BME280_temperature;BME280_humidity;BME280_pressure;Samples;Min_cycle;Max_cycle;Signal;HPM_P1;HPM_P2
2021/03/22 00:00:56;;;;;;;27.23;8.57;;;3.00;99.90;;;;;;5035336;28;20513;-87
2021/03/22 00:03:25;;;;;;;18.67;8.30;;;3.00;99.90;;;;;;5035203;28;20460;-88
2021/03/22 00:05:53;;;;;;;29.43;9.00;;;2.80;99.90;;;;;;5035089;28;20447;-88
2021/03/22 00:08:21;;;;;;;22.93;10.07;;;2.80;99.90;;;;;;5034880;28;20460;-87
2021/03/22 00:10:49;;;;;;;26.93;8.60;;;2.80;99.90;;;;;;5034971;28;20447;-87
2021/03/22 00:13:16;;;;;;;17.80;7.40;;;3.00;99.90;;;;;;5033800;28;20450;-88
2021/03/22 00:15:43;;;;;;;16.83;7.60;;;2.90;99.90;;;;;;5034853;28;20535;-88
2021/03/22 00:18:16;;;;;;;33.07;8.70;;;2.90;99.90;;;;;;5034653;28;20494;-88
2021/03/22 00:20:43;;;;;;;19.00;8.90;;;2.90;99.90;;;;;;5034789;28;20538;-86
2021/03/22 00:23:10;;;;;;;21.03;7.60;;;2.90;99.90;;;;;;5034466;28;20576;-88
2021/03/22 00:25:36;;;;;;;27.57;8.47;;;3.00;99.90;;;;;;5034675;28;20452;-88
2021/03/22 00:28:04;;;;;;;17.10;7.23;;;3.00;99.90;;;;;;5033231;28;20532;-88
2021/03/22 00:30:32;;;;;;;17.83;8.10;;;3.10;99.90;;;;;;5031324;28;20938;-87
2021/03/22 00:32:59;;;;;;;26.40;6.57;;;3.20;99.90;;;;;;5034581;28;20459;-88
2021/03/22 00:35:26;;;;;;;16.67;6.73;;;3.20;99.90;;;;;;5032565;28;20448;-87
2021/03/22 00:37:54;;;;;;;23.50;6.50;;;3.20;99.90;;;;;;5031324;28;20475;-87
2021/03/22 00:40:29;;;;;;;19.00;7.30;;;3.20;99.90;;;;;;5031445;28;20464;-87
2021/03/22 00:42:55;;;;;;;21.27;7.87;;;3.20;99.90;;;;;;5033275;28;20452;-87
2021/03/22 00:45:22;;;;;;;22.67;8.50;;;3.20;99.90;;;;;;5034332;28;20447;-87
2021/03/22 00:47:50;;;;;;;16.90;7.60;;;3.20;99.90;;;;;;5031168;28;20803;-87
2021/03/22 00:50:21;;;;;;;24.73;7.67;;;3.20;99.90;;;;;;5034275;28;20439;-88
2021/03/22 00:52:47;;;;;;;18.80;7.13;;;3.20;99.90;;;;;;5034256;28;20998;-87
2021/03/22 00:55:14;;;;;;;13.03;5.83;;;3.30;99.90;;;;;;5031329;28;20455;-88
2021/03/22 00:57:41;;;;;;;24.87;7.00;;;3.30;99.90;;;;;;5032913;28;20487;-88
2021/03/22 01:00:17;;;;;;;23.10;6.70;;;3.30;99.90;;;;;;5032715;28;20463;-88
2021/03/22 01:02:44;;;;;;;22.93;6.60;;;3.30;99.90;;;;;;5033763;28;20942;-87
2021/03/22 01:05:12;;;;;;;33.60;8.77;;;3.30;99.90;;;;;;5034021;28;20451;-89
2021/03/22 01:07:38;;;;;;;19.83;7.47;;;3.30;99.90;;;;;;5034016;28;20459;-88
2021/03/22 01:10:07;;;;;;;22.37;7.00;;;3.30;99.90;;;;;;5034003;28;20443;-88
2021/03/22 01:12:35;;;;;;;24.03;6.80;;;3.30;99.90;;;;;;5032772;28;20458;-88
2021/03/22 01:15:01;;;;;;;15.33;6.20;;;3.20;99.90;;;;;;5027998;28;20471;-89
2021/03/22 01:17:27;;;;;;;23.37;7.70;;;3.30;99.90;;;;;;5033898;28;20461;-88
2021/03/22 01:19:53;;;;;;;19.80;7.97;;;3.30;99.90;;;;;;5033862;28;20466;-88
2021/03/22 01:22:20;;;;;;;19.60;6.30;;;3.30;99.90;;;;;;5033969;28;20998;-87
2021/03/22 01:24:46;;;;;;;25.53;6.33;;;3.30;99.90;;;;;;5029738;28;20806;-88
2021/03/22 01:27:12;;;;;;;21.30;6.07;;;3.30;99.90;;;;;;5032667;28;20450;-88
2021/03/22 01:29:42;;;;;;;19.43;6.20;;;3.30;99.90;;;;;;5033983;28;20455;-88
2021/03/22 01:32:10;;;;;;;14.83;6.50;;;3.30;99.90;;;;;;5033960;28;20899;-87
2021/03/22 01:34:37;;;;;;;14.90;5.50;;;3.30;99.90;;;;;;5033645;28;20447;-89
2021/03/22 01:37:05;;;;;;;14.83;5.70;;;3.30;99.90;;;;;;5033686;28;20935;-88
2021/03/22 01:39:35;;;;;;;17.43;6.80;;;3.30;99.90;;;;;;5033537;28;20495;-88
2021/03/22 01:42:14;;;;;;;19.30;6.20;;;3.30;99.90;;;;;;5032630;28;20460;-88
2021/03/22 01:44:44;;;;;;;21.30;6.70;;;3.30;99.90;;;;;;5033438;28;20439;-88
2021/03/22 01:47:17;;;;;;;21.20;6.67;;;3.30;99.90;;;;;;5033568;28;20494;-88
2021/03/22 01:49:48;;;;;;;19.77;6.20;;;3.20;99.90;;;;;;5033909;28;20443;-88
2021/03/22 01:52:15;;;;;;;28.07;7.03;;;3.30;99.90;;;;;;5029209;28;20474;-88
2021/03/22 01:54:43;;;;;;;21.50;6.30;;;3.20;99.90;;;;;;5033197;28;20497;-88
2021/03/22 01:57:30;;;;;;;20.93;6.03;;;3.20;99.90;;;;;;5032327;28;20454;-87
2021/03/22 02:00:13;;;;;;;15.60;5.97;;;3.20;99.90;;;;;;5033537;28;20444;-88
2021/03/22 02:02:41;;;;;;;12.13;4.43;;;3.90;99.90;;;;;;5033715;28;20443;-87
2021/03/22 02:05:11;;;;;;;21.90;5.50;;;3.20;99.90;;;;;;5033547;28;20431;-87
2021/03/22 02:07:38;;;;;;;19.00;5.07;;;3.20;99.90;;;;;;5033576;28;20452;-88
2021/03/22 02:10:06;;;;;;;14.50;5.10;;;3.20;99.90;;;;;;5033586;28;20470;-88
2021/03/22 02:12:32;;;;;;;16.93;5.57;;;3.20;99.90;;;;;;5032015;28;20572;-88
2021/03/22 02:14:59;;;;;;;23.43;5.87;;;3.20;99.90;;;;;;5033062;28;20443;-88
2021/03/22 02:17:36;;;;;;;20.27;5.83;;;3.20;99.90;;;;;;5032905;28;20926;-87
2021/03/22 02:20:48;;;;;;;15.40;5.17;;;3.20;99.90;;;;;;5033006;28;20756;-88
2021/03/22 02:23:48;;;;;;;18.83;5.90;;;3.10;99.90;;;;;;5032766;28;20492;-88
2021/03/22 02:26:35;;;;;;;23.03;5.57;;;3.10;99.90;;;;;;5032194;28;20459;-88
2021/03/22 02:29:31;;;;;;;22.70;6.53;;;3.10;99.90;;;;;;5032820;28;20454;-89
2021/03/22 02:32:20;;;;;;;13.87;4.40;;;3.10;99.90;;;;;;5029697;28;20455;-88
2021/03/22 02:34:50;;;;;;;19.23;5.63;;;3.10;99.90;;;;;;5032794;28;20455;-89
2021/03/22 02:37:28;;;;;;;14.83;5.90;;;3.00;99.90;;;;;;5029938;28;20938;-89
2021/03/22 02:40:04;;;;;;;33.13;5.37;;;3.00;99.90;;;;;;5032897;28;20845;-89
2021/03/22 02:42:32;;;;;;;21.97;5.37;;;3.00;99.90;;;;;;5031461;28;20447;-90
2021/03/22 02:44:58;;;;;;;18.10;5.40;;;3.20;99.90;;;;;;5029813;28;20443;-88
2021/03/22 02:47:29;;;;;;;17.17;5.20;;;3.10;99.90;;;;;;5032701;28;20447;-89
2021/03/22 02:49:58;;;;;;;14.30;4.03;;;3.10;99.90;;;;;;5033068;28;20447;-88
2021/03/22 02:52:52;;;;;;;16.70;4.37;;;3.10;99.90;;;;;;5032512;28;20456;-88
2021/03/22 02:55:27;;;;;;;18.40;5.20;;;3.10;99.90;;;;;;5028498;28;20452;-87
2021/03/22 02:57:57;;;;;;;19.80;5.27;;;3.00;99.90;;;;;;5031704;28;20513;-88
2021/03/22 03:00:28;;;;;;;13.93;4.27;;;3.00;99.90;;;;;;5032909;28;20454;-88
2021/03/22 03:02:58;;;;;;;18.33;5.27;;;3.00;99.90;;;;;;5032944;28;20456;-87
2021/03/22 03:05:28;;;;;;;15.60;5.13;;;2.90;99.90;;;;;;5032886;28;20521;-87
2021/03/22 03:07:54;;;;;;;12.30;4.37;;;3.00;99.90;;;;;;5032654;28;20589;-88
2021/03/22 03:10:21;;;;;;;24.03;5.53;;;3.00;99.90;;;;;;5032428;28;20447;-87
2021/03/22 03:12:47;;;;;;;9.90;4.43;;;2.90;99.90;;;;;;5028511;28;20471;-88
2021/03/22 03:15:16;;;;;;;22.50;4.83;;;2.90;99.90;;;;;;5029324;28;20440;-87
2021/03/22 03:17:42;;;;;;;17.70;4.40;;;2.90;99.90;;;;;;5032398;28;20450;-88
2021/03/22 03:20:13;;;;;;;23.80;5.10;;;2.90;99.90;;;;;;5032183;28;20452;-88
2021/03/22 03:22:41;;;;;;;18.67;4.47;;;2.90;99.90;;;;;;5032711;28;20563;-87
2021/03/22 03:25:08;;;;;;;14.27;3.77;;;2.90;99.90;;;;;;5036076;28;20926;-88
2021/03/22 03:27:35;;;;;;;16.83;4.70;;;2.90;99.90;;;;;;5035052;28;20451;-88
2021/03/22 03:30:03;;;;;;;15.50;4.30;;;2.80;99.90;;;;;;5030424;28;20505;-89
2021/03/22 03:32:30;;;;;;;18.60;4.60;;;2.90;99.90;;;;;;5036120;28;20538;-88
2021/03/22 03:34:56;;;;;;;24.70;5.00;;;2.90;99.90;;;;;;5035999;28;20447;-88
2021/03/22 03:37:22;;;;;;;13.93;4.10;;;3.00;99.90;;;;;;5035828;28;20458;-88
2021/03/22 03:39:50;;;;;;;16.47;4.30;;;2.90;99.90;;;;;;5031599;28;20494;-88
2021/03/22 03:42:16;;;;;;;17.53;4.00;;;3.00;99.90;;;;;;5031977;28;20447;-88
2021/03/22 03:44:42;;;;;;;14.83;4.30;;;3.00;99.90;;;;;;5031586;28;20440;-88
2021/03/22 03:47:09;;;;;;;18.90;4.53;;;2.90;99.90;;;;;;5035820;28;20452;-87
2021/03/22 03:49:35;;;;;;;10.20;3.53;;;3.00;99.90;;;;;;5035674;28;20970;-87
2021/03/22 03:52:03;;;;;;;14.07;4.57;;;3.00;99.90;;;;;;5000970;28;20447;-88
2021/03/22 03:54:29;;;;;;;27.70;4.70;;;3.00;99.90;;;;;;5035719;28;20501;-87
2021/03/22 03:56:56;;;;;;;16.70;4.53;;;3.00;99.90;;;;;;5034668;28;20443;-88
2021/03/22 03:59:23;;;;;;;14.00;4.17;;;2.90;99.90;;;;;;5035573;28;20495;-89
2021/03/22 04:01:50;;;;;;;29.97;5.03;;;2.90;99.90;;;;;;5035212;28;20448;-88
2021/03/22 04:04:17;;;;;;;16.83;4.27;;;2.90;99.90;;;;;;5035430;28;20447;-88
2021/03/22 04:06:43;;;;;;;12.30;4.20;;;2.90;99.90;;;;;;5035523;28;20452;-89
2021/03/22 04:09:12;;;;;;;14.53;3.77;;;2.90;99.90;;;;;;5035810;28;20447;-90
2021/03/22 04:11:40;;;;;;;13.97;3.73;;;2.90;99.90;;;;;;5034503;28;20439;-87
2021/03/22 04:14:08;;;;;;;22.53;5.50;;;2.90;99.90;;;;;;5035089;28;20545;-87
2021/03/22 04:16:35;;;;;;;24.20;4.40;;;2.90;99.90;;;;;;5035083;28;20455;-88
2021/03/22 04:19:02;;;;;;;9.67;4.27;;;2.90;99.90;;;;;;5035291;28;20489;-88
2021/03/22 04:21:31;;;;;;;16.73;4.47;;;2.90;99.90;;;;;;5030864;28;20440;-88
2021/03/22 04:24:00;;;;;;;16.30;4.00;;;2.80;99.90;;;;;;5031099;28;20459;-88
2021/03/22 04:26:27;;;;;;;14.43;4.77;;;2.90;99.90;;;;;;5033903;28;20455;-88
2021/03/22 04:28:53;;;;;;;24.23;5.43;;;2.90;99.90;;;;;;5035024;28;20464;-87
2021/03/22 04:31:24;;;;;;;17.90;4.47;;;2.90;99.90;;;;;;5030934;28;20439;-87
2021/03/22 04:33:51;;;;;;;17.40;4.93;;;2.90;99.90;;;;;;5031632;28;20450;-88
2021/03/22 04:36:20;;;;;;;14.40;3.70;;;2.80;99.90;;;;;;5034860;28;20447;-87
2021/03/22 04:38:46;;;;;;;18.23;5.03;;;2.80;99.90;;;;;;5034647;28;20998;-88
2021/03/22 04:41:13;;;;;;;19.20;4.80;;;2.80;99.90;;;;;;5033875;28;20565;-88
2021/03/22 04:43:39;;;;;;;19.17;5.43;;;2.80;99.90;;;;;;5031775;28;21000;-87
2021/03/22 04:46:07;;;;;;;20.23;5.03;;;2.80;99.90;;;;;;5034895;28;20439;-88
2021/03/22 04:48:35;;;;;;;16.73;4.60;;;2.80;99.90;;;;;;5031381;28;21016;-89
2021/03/22 04:51:01;;;;;;;8.93;3.53;;;2.80;99.90;;;;;;5035440;28;20444;-88
2021/03/22 04:53:28;;;;;;;16.37;4.30;;;2.80;99.90;;;;;;5033321;28;20466;-90
2021/03/22 04:55:54;;;;;;;18.63;4.73;;;2.90;99.90;;;;;;5034669;28;20506;-88
2021/03/22 04:58:21;;;;;;;20.53;5.07;;;2.80;99.90;;;;;;5033514;28;20499;-88
2021/03/22 05:00:47;;;;;;;19.47;4.40;;;2.80;99.90;;;;;;5030695;28;20447;-89
2021/03/22 05:03:16;;;;;;;16.23;3.37;;;2.80;99.90;;;;;;5034862;28;20448;-91
2021/03/22 05:05:43;;;;;;;17.23;4.43;;;2.80;99.90;;;;;;5034307;28;20455;-87
2021/03/22 05:08:11;;;;;;;11.93;3.20;;;2.80;99.90;;;;;;5034208;28;20977;-88
2021/03/22 05:10:40;;;;;;;19.93;5.60;;;2.90;99.90;;;;;;5034100;28;20436;-88
2021/03/22 05:13:09;;;;;;;13.43;3.30;;;2.80;99.90;;;;;;5032909;28;21052;-87
2021/03/22 05:15:36;;;;;;;9.23;3.77;;;2.90;99.90;;;;;;5034324;28;20440;-88
2021/03/22 05:18:03;;;;;;;16.30;3.67;;;2.90;99.90;;;;;;5029893;28;20525;-87
2021/03/22 05:20:32;;;;;;;23.30;4.00;;;2.80;99.90;;;;;;5033927;28;20447;-87
2021/03/22 05:22:59;;;;;;;20.33;3.73;;;2.80;99.90;;;;;;5033795;28;20479;-88
2021/03/22 05:25:26;;;;;;;20.37;4.13;;;2.80;99.90;;;;;;5034039;28;20449;-88
2021/03/22 05:27:52;;;;;;;13.20;4.47;;;2.80;99.90;;;;;;5032575;28;20447;-88
2021/03/22 05:30:20;;;;;;;11.83;3.63;;;2.80;99.90;;;;;;5033844;28;20953;-88
2021/03/22 05:32:47;;;;;;;18.70;3.70;;;2.90;99.90;;;;;;5033819;28;20451;-87
2021/03/22 05:35:21;;;;;;;14.43;3.77;;;2.80;99.90;;;;;;5027899;28;20447;-88
2021/03/22 05:37:48;;;;;;;8.43;2.73;;;2.80;99.90;;;;;;5033449;28;20452;-88
2021/03/22 05:40:23;;;;;;;9.13;2.63;;;2.80;99.90;;;;;;5033700;28;20447;-86
2021/03/22 05:43:00;;;;;;;14.93;3.43;;;2.80;99.90;;;;;;5032524;28;20447;-88
2021/03/22 05:45:44;;;;;;;13.40;3.17;;;2.80;99.90;;;;;;5030020;28;20492;-89
2021/03/22 05:48:23;;;;;;;11.87;3.57;;;2.80;99.90;;;;;;5030599;28;20454;-88
2021/03/22 05:51:05;;;;;;;17.30;4.00;;;2.90;99.90;;;;;;5033818;28;20790;-89
2021/03/22 05:53:41;;;;;;;26.80;4.30;;;2.90;99.90;;;;;;5033703;28;20577;-88
2021/03/22 05:56:17;;;;;;;15.70;3.80;;;2.90;99.90;;;;;;5030675;28;20464;-89
2021/03/22 05:58:57;;;;;;;16.87;3.30;;;2.90;99.90;;;;;;5034017;28;20489;-90
2021/03/22 06:01:35;;;;;;;14.73;3.80;;;2.90;99.90;;;;;;5033601;28;20435;-88
2021/03/22 06:04:04;;;;;;;17.43;4.17;;;2.90;99.90;;;;;;5033485;28;20451;-88
2021/03/22 06:06:36;;;;;;;19.20;3.70;;;2.90;99.90;;;;;;5030811;28;20459;-89
2021/03/22 06:09:08;;;;;;;15.37;4.30;;;2.90;99.90;;;;;;5029442;28;20916;-89
2021/03/22 06:11:53;;;;;;;18.60;3.67;;;2.90;99.90;;;;;;5032434;28;20455;-87
2021/03/22 06:14:28;;;;;;;13.63;3.37;;;2.90;99.90;;;;;;5033572;28;20460;-89
2021/03/22 06:17:01;;;;;;;13.33;3.40;;;2.90;99.90;;;;;;5029672;28;20453;-88
2021/03/22 06:19:29;;;;;;;12.97;3.87;;;3.00;99.90;;;;;;5030131;28;20490;-88
2021/03/22 06:21:55;;;;;;;16.50;3.93;;;3.00;99.90;;;;;;5032966;28;20484;-88
2021/03/22 06:24:28;;;;;;;15.90;4.63;;;3.00;99.90;;;;;;5034208;28;20447;-87
2021/03/22 06:26:58;;;;;;;24.40;4.43;;;3.00;99.90;;;;;;5032213;28;20445;-86
2021/03/22 06:29:27;;;;;;;12.57;3.13;;;2.90;99.90;;;;;;5032634;28;20965;-88
2021/03/22 06:31:59;;;;;;;12.43;3.33;;;2.90;99.90;;;;;;5033446;28;20447;-86
2021/03/22 06:34:36;;;;;;;18.20;5.77;;;2.90;99.90;;;;;;5033681;28;20447;-88
2021/03/22 06:37:03;;;;;;;17.00;5.07;;;2.90;99.90;;;;;;5033626;28;20493;-88
2021/03/22 06:39:29;;;;;;;17.07;4.33;;;2.90;99.90;;;;;;5033787;28;20506;-87
2021/03/22 06:41:56;;;;;;;18.97;3.93;;;3.00;99.90;;;;;;5029670;28;20954;-93
2021/03/22 06:44:40;;;;;;;16.10;4.37;;;2.90;99.90;;;;;;5033586;28;20447;-88
2021/03/22 06:47:21;;;;;;;11.87;4.00;;;3.00;99.90;;;;;;5033386;28;20534;-87
2021/03/22 06:49:49;;;;;;;16.63;4.90;;;3.00;99.90;;;;;;5030478;28;20994;-89
2021/03/22 06:52:19;;;;;;;21.43;4.30;;;3.00;99.90;;;;;;5033287;28;20447;-90
2021/03/22 06:54:47;;;;;;;21.33;5.07;;;3.10;99.90;;;;;;5033096;28;20448;-88
2021/03/22 06:57:18;;;;;;;13.90;5.17;;;3.10;99.90;;;;;;5033864;28;20440;-90
2021/03/22 07:00:08;;;;;;;14.40;4.87;;;5.00;99.90;;;;;;5038436;28;20826;-90
2021/03/22 07:02:41;;;;;;;16.57;4.27;;;3.20;99.90;;;;;;5035459;28;20474;-89
2021/03/22 07:05:28;;;;;;;18.77;4.70;;;3.20;99.90;;;;;;5037914;28;20447;-90
2021/03/22 07:07:57;;;;;;;16.53;4.00;;;3.20;99.90;;;;;;5037870;28;20820;-89
2021/03/22 07:10:26;;;;;;;18.60;5.73;;;3.20;99.90;;;;;;5037854;28;20790;-88
2021/03/22 07:13:07;;;;;;;17.33;4.70;;;3.20;99.90;;;;;;5037056;28;20447;-91
2021/03/22 07:15:34;;;;;;;17.63;4.23;;;3.20;99.90;;;;;;5037682;28;20447;-92
2021/03/22 07:18:03;;;;;;;15.27;3.80;;;3.20;99.90;;;;;;5035817;28;20457;-94
2021/03/22 07:20:30;;;;;;;22.60;4.60;;;3.20;99.90;;;;;;5031651;28;20808;-91
2021/03/22 07:23:12;;;;;;;10.20;2.63;;;3.20;99.90;;;;;;5037726;28;20487;-91
2021/03/22 07:25:42;;;;;;;22.53;4.83;;;3.20;99.90;;;;;;5031248;28;20934;-89
2021/03/22 07:28:16;;;;;;;16.50;4.63;;;3.30;99.90;;;;;;5037644;28;20930;-89
2021/03/22 07:30:47;;;;;;;18.73;4.30;;;3.40;99.90;;;;;;5037761;28;20458;-90
2021/03/22 07:33:21;;;;;;;25.23;4.70;;;3.40;99.90;;;;;;5038453;28;20459;-94
2021/03/22 07:36:22;;;;;;;15.83;4.03;;;3.40;99.90;;;;;;5037719;28;20458;-91
2021/03/22 07:39:20;;;;;;;17.67;3.43;;;3.60;99.90;;;;;;5037300;28;20491;-89
2021/03/22 07:42:06;;;;;;;15.23;3.73;;;3.50;99.90;;;;;;5029567;28;20459;-89
2021/03/22 07:44:55;;;;;;;13.73;4.13;;;3.60;99.90;;;;;;5019927;28;20891;-90
2021/03/22 07:47:44;;;;;;;13.47;3.93;;;3.70;99.90;;;;;;5037875;28;20973;-93
2021/03/22 07:50:20;;;;;;;13.73;4.17;;;3.70;99.90;;;;;;5020715;28;20478;-90
2021/03/22 07:52:52;;;;;;;14.40;3.10;;;3.70;99.90;;;;;;5038239;28;20437;-93
2021/03/22 07:55:45;;;;;;;22.67;4.33;;;3.70;99.90;;;;;;5036960;28;20451;-91
2021/03/22 07:58:22;;;;;;;12.73;4.03;;;3.80;99.90;;;;;;5017148;28;20891;-92
2021/03/22 08:01:02;;;;;;;12.30;3.53;;;3.80;99.90;;;;;;5032483;28;20442;-89
2021/03/22 08:03:35;;;;;;;19.20;3.87;;;3.80;99.90;;;;;;5059561;28;20450;-91
2021/03/22 08:06:24;;;;;;;16.30;3.43;;;3.80;99.90;;;;;;5060312;28;20473;-93
2021/03/22 08:09:10;;;;;;;12.80;3.13;;;3.70;99.90;;;;;;5054934;28;20447;-89
2021/03/22 08:11:44;;;;;;;18.40;3.00;;;3.80;99.90;;;;;;5060208;28;20480;-90
2021/03/22 08:14:18;;;;;;;11.73;2.17;;;3.90;99.90;;;;;;5055050;28;20789;-89
2021/03/22 08:17:23;;;;;;;8.20;2.67;;;3.90;99.90;;;;;;5059187;28;20512;-89
2021/03/22 08:19:56;;;;;;;9.73;2.53;;;4.00;99.90;;;;;;5045394;28;20482;-89
2021/03/22 08:22:29;;;;;;;7.17;2.40;;;4.00;99.90;;;;;;5061499;28;20474;-90
2021/03/22 08:25:26;;;;;;;11.90;3.30;;;4.00;99.90;;;;;;5056071;28;20450;-92
2021/03/22 08:28:00;;;;;;;13.63;3.10;;;3.80;99.90;;;;;;5025011;28;20455;-92
2021/03/22 08:30:32;;;;;;;6.93;2.33;;;3.90;99.90;;;;;;5058368;28;20827;-92
2021/03/22 08:33:03;;;;;;;9.40;2.23;;;5.40;99.90;;;;;;5056430;28;20446;-90
2021/03/22 08:35:36;;;;;;;12.77;3.13;;;4.00;99.90;;;;;;5057273;28;20480;-89
2021/03/22 08:38:09;;;;;;;13.87;3.70;;;5.00;99.90;;;;;;5039016;28;20470;-87
2021/03/22 08:40:47;;;;;;;14.53;3.20;;;4.20;99.90;;;;;;5035703;28;20451;-88
2021/03/22 08:43:25;;;;;;;7.83;2.70;;;4.20;99.90;;;;;;5022022;28;20440;-92
2021/03/22 08:46:05;;;;;;;15.87;3.53;;;4.30;99.90;;;;;;5025583;28;20448;-89
2021/03/22 08:48:31;;;;;;;7.90;2.23;;;4.30;99.90;;;;;;5036468;28;20471;-92
2021/03/22 08:51:03;;;;;;;8.23;2.87;;;4.30;99.90;;;;;;5033074;28;20435;-92
2021/03/22 08:53:34;;;;;;;13.77;3.77;;;4.50;99.90;;;;;;5037505;28;20447;-91
2021/03/22 08:56:04;;;;;;;12.30;4.03;;;4.60;99.90;;;;;;5039794;28;20450;-90
2021/03/22 08:58:34;;;;;;;16.60;3.30;;;4.40;99.90;;;;;;5036297;28;20496;-90
2021/03/22 09:01:19;;;;;;;8.80;2.80;;;4.70;99.90;;;;;;5037283;28;20851;-91
2021/03/22 09:03:51;;;;;;;13.20;3.23;;;4.70;99.90;;;;;;5036797;28;20917;-93
2021/03/22 09:06:23;;;;;;;6.03;2.73;;;4.70;99.90;;;;;;5038193;28;20531;-91
2021/03/22 09:09:18;;;;;;;9.13;2.27;;;4.90;99.90;;;;;;5039039;28;21044;-92
2021/03/22 09:11:45;;;;;;;8.63;2.70;;;4.90;99.90;;;;;;5038298;28;20455;-92
2021/03/22 09:14:42;;;;;;;12.77;2.77;;;5.00;99.90;;;;;;5038595;28;20452;-91
2021/03/22 09:17:33;;;;;;;7.73;1.73;;;4.70;99.90;;;;;;5036197;28;20459;-90
2021/03/22 09:20:24;;;;;;;3.17;1.57;;;4.70;99.90;;;;;;5036756;28;20511;-91
2021/03/22 09:22:58;;;;;;;6.67;2.17;;;4.80;99.90;;;;;;5022300;28;20491;-89
2021/03/22 09:25:56;;;;;;;5.40;1.77;;;4.90;99.90;;;;;;5036391;28;20574;-89
2021/03/22 09:28:39;;;;;;;8.07;2.43;;;4.90;99.90;;;;;;5025992;28;20452;-91
2021/03/22 09:31:26;;;;;;;6.97;2.13;;;4.50;99.90;;;;;;5045520;28;20483;-91
2021/03/22 09:33:56;;;;;;;8.47;2.43;;;4.60;99.90;;;;;;5048127;28;20452;-91
2021/03/22 09:36:36;;;;;;;13.07;3.30;;;4.70;99.90;;;;;;5032382;28;20483;-91
2021/03/22 09:39:27;;;;;;;12.83;2.97;;;4.70;99.90;;;;;;5035560;28;21008;-90
2021/03/22 09:42:02;;;;;;;12.77;3.53;;;4.50;99.90;;;;;;5033709;28;20451;-89
2021/03/22 09:44:31;;;;;;;8.03;2.60;;;4.30;99.90;;;;;;5034285;28;20451;-89
2021/03/22 09:47:19;;;;;;;6.40;2.60;;;4.20;99.90;;;;;;5017792;28;20463;-91
2021/03/22 09:50:21;;;;;;;12.23;2.70;;;4.40;99.90;;;;;;5017672;28;20480;-93
2021/03/22 09:53:14;;;;;;;8.23;1.90;;;4.30;99.90;;;;;;5012945;28;20452;-91
2021/03/22 09:56:04;;;;;;;15.70;2.83;;;4.60;99.90;;;;;;5016581;28;20463;-93
2021/03/22 09:58:37;;;;;;;10.63;2.40;;;4.90;99.90;;;;;;5012297;28;20978;-91
2021/03/22 10:01:07;;;;;;;3.77;1.53;;;5.20;99.90;;;;;;5015676;28;20493;-90
2021/03/22 10:03:47;;;;;;;8.37;2.70;;;5.30;99.90;;;;;;5012889;28;20436;-89
2021/03/22 10:06:44;;;;;;;8.67;2.50;;;5.40;99.90;;;;;;5011743;28;20510;-91
2021/03/22 10:09:17;;;;;;;5.97;2.30;;;4.90;99.90;;;;;;5013627;28;20467;-89
2021/03/22 10:11:46;;;;;;;9.27;2.70;;;4.90;99.90;;;;;;5014053;28;20455;-90
2021/03/22 10:14:25;;;;;;;4.20;2.00;;;5.10;99.90;;;;;;5014971;28;20445;-90
2021/03/22 10:16:52;;;;;;;12.73;3.23;;;5.30;99.90;;;;;;5018167;28;20946;-91
2021/03/22 10:19:21;;;;;;;19.23;4.40;;;5.60;99.90;;;;;;5018403;28;20917;-92
2021/03/22 10:21:50;;;;;;;18.43;3.60;;;5.50;99.90;;;;;;5017160;28;20494;-92
2021/03/22 10:24:26;;;;;;;7.97;2.27;;;5.60;99.90;;;;;;5017384;28;20885;-90
2021/03/22 10:26:56;;;;;;;14.30;4.23;;;5.60;99.90;;;;;;5017946;28;20951;-90
2021/03/22 10:29:26;;;;;;;20.80;3.87;;;5.50;99.90;;;;;;5015786;28;20455;-93
2021/03/22 10:32:01;;;;;;;6.60;2.93;;;5.40;99.90;;;;;;5017823;28;20460;-91
2021/03/22 10:34:30;;;;;;;22.27;4.77;;;5.30;99.90;;;;;;4936423;29;20934;-89
2021/03/22 10:37:04;;;;;;;7.53;2.70;;;5.30;99.90;;;;;;4936261;29;20535;-90
2021/03/22 10:39:34;;;;;;;8.93;3.00;;;5.00;99.90;;;;;;4934531;29;20499;-90
2021/03/22 10:42:03;;;;;;;12.20;2.77;;;4.80;99.90;;;;;;4933323;29;20471;-89
2021/03/22 10:44:33;;;;;;;5.80;2.10;;;4.80;99.90;;;;;;4934307;29;20464;-88
2021/03/22 10:47:06;;;;;;;5.40;2.57;;;4.70;99.90;;;;;;4933563;29;20815;-87
2021/03/22 10:49:32;;;;;;;7.77;2.57;;;4.70;99.90;;;;;;4934617;29;20483;-90
2021/03/22 10:52:01;;;;;;;14.23;3.40;;;4.60;99.90;;;;;;4934619;29;20444;-90
2021/03/22 10:54:41;;;;;;;6.23;2.23;;;4.70;99.90;;;;;;4935214;29;20536;-88
2021/03/22 10:57:16;;;;;;;11.10;3.40;;;4.60;99.90;;;;;;4934623;29;20458;-90
2021/03/22 10:59:45;;;;;;;4.37;1.97;;;4.60;99.90;;;;;;4998252;28;20491;-89
2021/03/22 11:02:22;;;;;;;10.07;2.70;;;4.60;99.90;;;;;;5028583;28;20444;-92
2021/03/22 11:04:49;;;;;;;10.53;2.57;;;5.20;99.90;;;;;;5048675;28;20445;-90
2021/03/22 11:07:19;;;;;;;10.00;3.20;;;4.60;99.90;;;;;;5003302;28;20983;-92
2021/03/22 11:09:56;;;;;;;7.63;2.70;;;4.80;99.90;;;;;;5014155;28;20444;-92
2021/03/22 11:12:25;;;;;;;17.33;3.70;;;4.90;99.90;;;;;;4939494;28;20468;-89
2021/03/22 11:14:56;;;;;;;7.83;2.87;;;4.90;99.90;;;;;;5051649;28;20458;-89
2021/03/22 11:17:25;;;;;;;21.13;3.70;;;5.00;99.90;;;;;;5054136;28;20450;-90
2021/03/22 11:19:52;;;;;;;19.57;4.10;;;5.20;99.90;;;;;;5053878;28;20517;-90
2021/03/22 11:22:29;;;;;;;157.33;19.97;;;5.20;99.90;;;;;;5053186;28;20478;-86
2021/03/22 11:24:56;;;;;;;15.57;4.43;;;5.10;99.90;;;;;;5052896;28;20477;-89
2021/03/22 11:27:47;;;;;;;9.47;2.53;;;5.30;99.90;;;;;;5049767;28;20937;-89
2021/03/22 11:30:14;;;;;;;11.43;2.33;;;5.30;99.90;;;;;;5042162;28;20439;-88
2021/03/22 11:32:47;;;;;;;4.13;2.60;;;5.20;99.90;;;;;;5049677;28;20455;-88
2021/03/22 11:35:23;;;;;;;5.27;1.93;;;5.20;99.90;;;;;;5035401;28;20455;-88
2021/03/22 11:37:52;;;;;;;7.00;2.30;;;5.00;99.90;;;;;;5033203;28;20543;-88
2021/03/22 11:40:21;;;;;;;7.57;2.90;;;4.90;99.90;;;;;;5031593;28;20486;-90
2021/03/22 11:42:56;;;;;;;8.03;2.80;;;4.80;99.90;;;;;;5032240;28;20979;-87
2021/03/22 11:45:32;;;;;;;9.57;2.30;;;4.80;99.90;;;;;;5036123;28;20465;-90
2021/03/22 11:47:59;;;;;;;8.20;3.20;;;4.90;99.90;;;;;;5033648;28;20463;-90
2021/03/22 11:50:39;;;;;;;6.80;2.53;;;5.00;99.90;;;;;;5036980;28;20809;-89
2021/03/22 11:53:14;;;;;;;9.90;3.00;;;5.00;99.90;;;;;;5036550;28;20494;-89
2021/03/22 11:55:44;;;;;;;6.90;3.13;;;5.10;99.90;;;;;;5032946;28;20462;-88
2021/03/22 11:58:37;;;;;;;10.40;3.73;;;5.10;99.90;;;;;;5035912;28;20467;-89
2021/03/22 12:01:15;;;;;;;6.73;3.23;;;5.10;99.90;;;;;;5037409;28;20525;-88
2021/03/22 12:03:41;;;;;;;11.73;3.70;;;5.20;99.90;;;;;;5036184;28;20447;-89
2021/03/22 12:06:10;;;;;;;7.53;2.67;;;5.30;99.90;;;;;;5035990;28;20930;-90
2021/03/22 12:08:39;;;;;;;6.13;3.20;;;5.40;99.90;;;;;;5036001;28;20479;-89
2021/03/22 12:11:09;;;;;;;11.00;3.70;;;5.60;99.90;;;;;;5036088;28;20543;-89
2021/03/22 12:13:36;;;;;;;8.10;3.13;;;5.80;99.90;;;;;;5035683;28;20451;-89
2021/03/22 12:16:03;;;;;;;6.00;2.63;;;5.80;99.90;;;;;;5036221;28;20451;-89
2021/03/22 12:18:32;;;;;;;4.60;2.57;;;6.00;99.90;;;;;;5035635;28;20967;-89
2021/03/22 12:21:04;;;;;;;4.83;2.30;;;6.20;99.90;;;;;;5053451;28;20453;-91
2021/03/22 12:23:30;;;;;;;8.10;2.30;;;6.20;99.90;;;;;;5052632;28;20477;-92
2021/03/22 12:25:56;;;;;;;5.40;2.20;;;6.30;99.90;;;;;;5051277;28;20451;-89
2021/03/22 12:28:23;;;;;;;7.33;2.27;;;6.30;99.90;;;;;;5044496;28;20454;-90
2021/03/22 12:30:50;;;;;;;5.77;2.73;;;6.20;99.90;;;;;;5055890;28;20451;-90
2021/03/22 12:33:21;;;;;;;9.07;3.10;;;6.20;99.90;;;;;;5041645;28;20447;-87
2021/03/22 12:35:48;;;;;;;5.40;2.40;;;6.10;99.90;;;;;;5035351;28;20466;-89
2021/03/22 12:38:14;;;;;;;7.17;2.40;;;6.10;99.90;;;;;;5035475;28;20451;-88
2021/03/22 12:40:41;;;;;;;8.40;3.10;;;6.10;99.90;;;;;;5033016;28;20491;-89
2021/03/22 12:43:14;;;;;;;5.73;2.00;;;6.20;99.90;;;;;;5034303;28;20914;-88
2021/03/22 12:45:41;;;;;;;5.27;2.67;;;6.30;99.90;;;;;;5051130;28;20450;-87
2021/03/22 12:48:09;;;;;;;5.73;2.13;;;6.10;99.90;;;;;;5055186;28;20497;-87
2021/03/22 12:50:38;;;;;;;4.23;2.10;;;5.80;99.90;;;;;;5049703;28;20447;-87
2021/03/22 12:53:04;;;;;;;5.23;2.30;;;5.70;99.90;;;;;;5055131;28;20470;-87
2021/03/22 12:55:32;;;;;;;8.93;2.17;;;6.00;99.90;;;;;;5051842;28;20449;-89
2021/03/22 12:58:01;;;;;;;5.57;1.90;;;6.10;99.90;;;;;;5052143;28;20504;-91
2021/03/22 13:00:30;;;;;;;5.60;1.77;;;6.10;99.90;;;;;;5053685;28;20489;-91
2021/03/22 13:02:57;;;;;;;9.80;2.17;;;5.80;99.90;;;;;;5053142;28;20435;-90
2021/03/22 13:05:25;;;;;;;2.37;1.47;;;5.90;99.90;;;;;;5056054;28;20450;-92
2021/03/22 13:07:53;;;;;;;5.90;2.10;;;6.00;99.90;;;;;;5053028;28;20968;-89
2021/03/22 13:10:21;;;;;;;2.50;1.87;;;5.90;99.90;;;;;;5055063;28;20470;-90
2021/03/22 13:12:48;;;;;;;4.97;2.27;;;5.90;99.90;;;;;;5054758;28;20447;-88
2021/03/22 13:15:34;;;;;;;4.07;2.13;;;5.90;99.90;;;;;;5052919;28;20446;-91
2021/03/22 13:18:03;;;;;;;4.93;2.87;;;5.90;99.90;;;;;;5056611;28;20442;-89